Time;durP1;ratioP1;P1;durP2;ratioP2;P2;SDS_P1;SDS_P2;PMS_P1;PMS_P2;Temp;Humidity;BMP_temperature;BMP_pressure;BME280_temperature;BME280_humidity;BME280_pressure;Samples;Min_cycle;Max_cycle;Signal;HPM_P1;HPM_P2
2020/12/31 00:01:32;;;;;;;24.33;16.63;;;;;;;-143.98;100.00;68091.63;6253051;22;20099;-82
2020/12/31 00:03:59;;;;;;;26.30;18.05;;;;;;;-143.98;100.00;68091.63;6230260;22;20027;-82
2020/12/31 00:06:25;;;;;;;26.65;17.67;;;;;;;-143.98;100.00;68091.63;6229362;22;20028;-81
2020/12/31 00:08:51;;;;;;;24.23;17.73;;;;;;;-143.98;100.00;68091.63;6228925;22;20034;-81
2020/12/31 00:11:17;;;;;;;29.80;18.95;;;;;;;-143.98;100.00;68091.63;6231102;22;20340;-82
2020/12/31 00:13:51;;;;;;;29.85;20.17;;;;;;;-143.98;100.00;68091.63;6283074;22;20095;-81
2020/12/31 00:16:17;;;;;;;31.55;19.33;;;;;;;-143.98;100.00;68091.63;6255930;22;20070;-82
2020/12/31 00:18:43;;;;;;;33.05;19.73;;;;;;;-143.98;100.00;68091.63;6256362;22;20209;-81
2020/12/31 00:21:12;;;;;;;32.92;20.88;;;;;;;-143.98;100.00;68091.63;6232101;22;20110;-81
2020/12/31 00:23:45;;;;;;;31.70;22.15;;;;;;;-143.98;100.00;68091.63;6284372;22;20028;-82
2020/12/31 00:26:12;;;;;;;32.72;21.33;;;;;;;-143.98;100.00;68091.63;6231272;22;20039;-82
2020/12/31 00:28:38;;;;;;;36.75;22.83;;;;;;;-143.98;100.00;68091.63;6256042;22;20051;-82
2020/12/31 00:31:04;;;;;;;36.17;22.35;;;;;;;-143.98;100.00;68091.63;6233177;22;20377;-82
2020/12/31 00:33:30;;;;;;;35.83;21.42;;;;;;;-143.98;100.00;68091.63;6240877;22;20045;-82
2020/12/31 00:35:57;;;;;;;38.28;24.15;;;;;;;-143.98;100.00;68091.63;6278910;22;20039;-82
2020/12/31 00:38:26;;;;;;;34.22;23.95;;;;;;;-143.98;100.00;68091.63;6265656;22;20024;-82
2020/12/31 00:40:56;;;;;;;37.50;23.20;;;;;;;-143.98;100.00;68091.63;6262459;22;20027;-82
2020/12/31 00:43:22;;;;;;;33.45;22.88;;;;;;;-143.98;100.00;68091.63;6278934;22;20020;-82
2020/12/31 00:46:26;;;;;;;34.78;23.00;;;;;;;-143.98;100.00;68091.63;6278524;22;20088;-82
2020/12/31 00:48:53;;;;;;;34.42;21.77;;;;;;;-143.98;100.00;68091.63;6303281;22;20075;-81
2020/12/31 00:51:19;;;;;;;37.53;23.08;;;;;;;-143.98;100.00;68091.63;6268737;22;20086;-81
2020/12/31 00:53:45;;;;;;;35.70;22.98;;;;;;;-143.98;100.00;68091.63;6233350;22;20027;-82
2020/12/31 00:56:12;;;;;;;37.88;23.83;;;;;;;-143.98;100.00;68091.63;6257699;22;20367;-81
2020/12/31 00:58:38;;;;;;;38.25;23.85;;;;;;;-143.98;100.00;68091.63;6283187;22;20027;-82
2020/12/31 01:01:06;;;;;;;34.78;23.73;;;;;;;-143.98;100.00;68091.63;6258986;22;20034;-82
2020/12/31 01:03:45;;;;;;;36.50;23.27;;;;;;;-143.98;100.00;68091.63;6257496;22;20106;-80
2020/12/31 01:06:12;;;;;;;36.03;23.45;;;;;;;-143.98;100.00;68091.63;6229815;22;20089;-81
2020/12/31 01:08:38;;;;;;;37.35;24.45;;;;;;;-143.98;100.00;68091.63;6253565;22;20399;-82
2020/12/31 01:11:06;;;;;;;37.53;23.55;;;;;;;-143.98;100.00;68091.63;6252475;22;20023;-81
2020/12/31 01:13:32;;;;;;;38.20;22.80;;;;;;;-143.98;100.00;68091.63;6227375;22;20028;-81
2020/12/31 01:15:58;;;;;;;42.97;24.88;;;;;;;-143.98;100.00;68091.63;6254184;22;20062;-82
2020/12/31 01:18:25;;;;;;;36.72;23.80;;;;;;;-143.98;100.00;68091.63;6253867;22;20024;-82
2020/12/31 01:20:57;;;;;;;40.28;23.67;;;;;;;-143.98;100.00;68091.63;6253956;22;20074;-82
2020/12/31 01:23:23;;;;;;;38.78;23.67;;;;;;;-143.98;100.00;68091.63;6280707;22;20047;-81
2020/12/31 01:25:51;;;;;;;40.78;24.05;;;;;;;-143.98;100.00;68091.63;6228338;22;20373;-82
2020/12/31 01:28:17;;;;;;;35.92;23.23;;;;;;;-143.98;100.00;68091.63;6229227;22;20444;-82
2020/12/31 01:30:58;;;;;;;43.67;24.02;;;;;;;-143.98;100.00;68091.63;6224706;22;20066;-83
2020/12/31 01:33:24;;;;;;;33.80;22.63;;;;;;;-143.98;100.00;68091.63;6280540;22;20027;-81
2020/12/31 01:35:50;;;;;;;37.67;23.40;;;;;;;-143.98;100.00;68091.63;6229174;22;20593;-81
2020/12/31 01:38:17;;;;;;;43.00;24.23;;;;;;;-143.98;100.00;68091.63;6254678;22;20051;-81
2020/12/31 01:40:47;;;;;;;40.85;24.48;;;;;;;-143.98;100.00;68091.63;6254226;22;20074;-81
2020/12/31 01:43:13;;;;;;;37.40;21.85;;;;;;;-143.98;100.00;68091.63;6254678;22;20297;-81
2020/12/31 01:45:42;;;;;;;38.78;24.10;;;;;;;-143.98;100.00;68091.63;6254540;22;20618;-84
2020/12/31 01:48:09;;;;;;;35.95;22.90;;;;;;;-143.98;100.00;68091.63;6230469;22;20024;-84
2020/12/31 01:50:44;;;;;;;41.00;24.50;;;;;;;-143.98;100.00;68091.63;6229973;22;20024;-84
2020/12/31 01:53:11;;;;;;;37.67;23.60;;;;;;;-143.98;100.00;68091.63;6231046;22;20024;-84
2020/12/31 01:55:37;;;;;;;36.63;22.15;;;;;;;-143.98;100.00;68091.63;6230955;22;20038;-84
2020/12/31 01:58:03;;;;;;;35.08;21.83;;;;;;;-143.98;100.00;68091.63;6249321;23;20055;-84
2020/12/31 02:00:33;;;;;;;33.47;22.50;;;;;;;-143.98;100.00;68091.63;6223579;23;20017;-84
2020/12/31 02:03:02;;;;;;;38.22;21.88;;;;;;;-143.98;100.00;68091.63;6249912;23;20308;-84
2020/12/31 02:05:29;;;;;;;35.15;21.58;;;;;;;-143.98;100.00;68091.63;6249299;23;20032;-85
2020/12/31 02:07:55;;;;;;;35.03;22.65;;;;;;;-143.98;100.00;68091.63;6224143;23;20048;-85
2020/12/31 02:10:21;;;;;;;39.38;22.92;;;;;;;-143.98;100.00;68091.63;6248090;23;20024;-84
2020/12/31 02:12:47;;;;;;;36.80;21.25;;;;;;;-143.98;100.00;68091.63;6248610;23;20423;-84
2020/12/31 02:15:17;;;;;;;31.98;20.52;;;;;;;-143.98;100.00;68091.63;6224124;23;20028;-84
2020/12/31 02:17:44;;;;;;;34.08;21.10;;;;;;;-143.98;100.00;68091.63;6273788;22;20106;-84
2020/12/31 02:20:14;;;;;;;33.70;20.42;;;;;;;-143.98;100.00;68091.63;6223497;23;20023;-83
2020/12/31 02:22:40;;;;;;;32.90;20.65;;;;;;;-143.98;100.00;68091.63;6247964;23;20028;-84
2020/12/31 02:25:06;;;;;;;35.78;20.95;;;;;;;-143.98;100.00;68091.63;6250220;23;20048;-83
2020/12/31 02:27:33;;;;;;;33.78;21.15;;;;;;;-143.98;100.00;68091.63;6223766;23;20051;-84
2020/12/31 02:29:59;;;;;;;34.42;21.15;;;;;;;-143.98;100.00;68091.63;6250989;23;20078;-84
2020/12/31 02:32:25;;;;;;;36.05;21.95;;;;;;;-143.98;100.00;68091.63;6248887;23;20042;-84
2020/12/31 02:34:52;;;;;;;34.58;20.02;;;;;;;-143.98;100.00;68091.63;6225419;23;20110;-84
2020/12/31 02:37:18;;;;;;;32.08;21.02;;;;;;;-143.98;100.00;68091.63;6224204;23;20035;-85
2020/12/31 02:39:44;;;;;;;37.53;21.75;;;;;;;-143.98;100.00;68091.63;6249664;22;20034;-85
2020/12/31 02:42:13;;;;;;;30.38;20.10;;;;;;;-143.98;100.00;68091.63;6247535;23;20051;-84
2020/12/31 02:44:43;;;;;;;32.22;20.30;;;;;;;-143.98;100.00;68091.63;6247540;23;20240;-84
2020/12/31 02:47:09;;;;;;;32.53;20.52;;;;;;;-143.98;100.00;68091.63;6247676;23;20083;-85
2020/12/31 02:49:36;;;;;;;30.45;20.10;;;;;;;-143.98;100.00;68091.63;6222371;23;20028;-85
2020/12/31 02:52:03;;;;;;;34.38;20.83;;;;;;;-143.98;100.00;68091.63;6247152;23;20397;-84
2020/12/31 02:54:29;;;;;;;33.63;20.95;;;;;;;-143.98;100.00;68091.63;6248966;23;20032;-83
2020/12/31 02:56:55;;;;;;;34.22;20.50;;;;;;;-143.98;100.00;68091.63;6235651;22;20024;-83
2020/12/31 02:59:21;;;;;;;31.73;20.35;;;;;;;-143.98;100.00;68091.63;6245338;22;20072;-84
2020/12/31 03:01:52;;;;;;;32.95;19.38;;;;;;;-143.98;100.00;68091.63;6237676;23;20032;-83
2020/12/31 03:04:18;;;;;;;32.60;20.23;;;;;;;-143.98;100.00;68091.63;6198234;23;20028;-83
2020/12/31 03:06:44;;;;;;;31.52;20.75;;;;;;;-143.98;100.00;68091.63;6196633;23;20059;-83
2020/12/31 03:09:11;;;;;;;34.60;20.13;;;;;;;-143.98;100.00;68091.63;6253084;23;20012;-83
2020/12/31 03:11:37;;;;;;;31.52;20.77;;;;;;;-143.98;100.00;68091.63;6217093;22;20008;-83
2020/12/31 03:14:03;;;;;;;34.92;20.35;;;;;;;-143.98;100.00;68091.63;6208254;23;20024;-83
2020/12/31 03:16:30;;;;;;;33.03;20.90;;;;;;;-143.98;100.00;68091.63;6198952;23;20090;-83
2020/12/31 03:18:59;;;;;;;37.03;21.15;;;;;;;-143.98;100.00;68091.63;6198353;23;20028;-85
2020/12/31 03:21:25;;;;;;;31.25;19.90;;;;;;;-143.98;100.00;68091.63;6224671;23;20031;-84
2020/12/31 03:23:51;;;;;;;36.65;20.23;;;;;;;-143.98;100.00;68091.63;6237509;23;20018;-84
2020/12/31 03:26:17;;;;;;;34.30;20.05;;;;;;;-143.98;100.00;68091.63;6266482;22;20040;-84
2020/12/31 03:28:58;;;;;;;30.88;19.75;;;;;;;-143.98;100.00;68091.63;6202646;23;20055;-85
2020/12/31 03:31:24;;;;;;;30.42;19.40;;;;;;;-143.98;100.00;68091.63;6246455;23;20028;-84
2020/12/31 03:33:50;;;;;;;32.25;19.25;;;;;;;-143.98;100.00;68091.63;6221569;23;20031;-84
2020/12/31 03:36:24;;;;;;;32.40;20.00;;;;;;;-143.98;100.00;68091.63;6222852;23;20035;-84
2020/12/31 03:38:50;;;;;;;31.35;18.98;;;;;;;-143.98;100.00;68091.63;6196577;23;20020;-84
2020/12/31 03:41:17;;;;;;;33.30;20.35;;;;;;;-143.98;100.00;68091.63;6197106;23;20028;-84
2020/12/31 03:43:45;;;;;;;30.27;19.85;;;;;;;-143.98;100.00;68091.63;6197975;23;20102;-84
2020/12/31 03:46:11;;;;;;;36.40;20.35;;;;;;;-143.98;100.00;68091.63;6223288;23;20110;-84
2020/12/31 03:48:37;;;;;;;31.17;19.83;;;;;;;-143.98;100.00;68091.63;6223338;23;20028;-84
2020/12/31 03:51:03;;;;;;;30.73;21.05;;;;;;;-143.98;100.00;68091.63;6197681;23;20483;-85
2020/12/31 03:53:30;;;;;;;30.35;19.30;;;;;;;-143.98;100.00;68091.63;6199327;23;20028;-84
2020/12/31 03:55:56;;;;;;;31.85;20.17;;;;;;;-143.98;100.00;68091.63;6223194;23;20078;-84
2020/12/31 03:58:22;;;;;;;37.13;21.30;;;;;;;-143.98;100.00;68091.63;6239313;23;20390;-83
2020/12/31 04:00:49;;;;;;;35.75;21.02;;;;;;;-143.98;100.00;68091.63;6249141;23;20371;-83
2020/12/31 04:03:15;;;;;;;31.10;20.27;;;;;;;-143.98;100.00;68091.63;6248077;23;20032;-83
2020/12/31 04:05:41;;;;;;;33.60;20.30;;;;;;;-143.98;100.00;68091.63;6248677;23;20032;-83
2020/12/31 04:08:07;;;;;;;32.28;20.38;;;;;;;-143.98;100.00;68091.63;6247809;23;20075;-83
2020/12/31 04:10:40;;;;;;;35.70;20.75;;;;;;;-143.98;100.00;68091.63;6247071;23;20447;-83
2020/12/31 04:13:06;;;;;;;32.75;21.98;;;;;;;-143.98;100.00;68091.63;6247098;23;20039;-83
2020/12/31 04:15:32;;;;;;;31.30;20.63;;;;;;;-143.98;100.00;68091.63;6248748;23;20027;-84
2020/12/31 04:18:00;;;;;;;29.50;19.85;;;;;;;-143.98;100.00;68091.63;6248553;23;20016;-84
2020/12/31 04:20:30;;;;;;;31.95;20.52;;;;;;;-143.98;100.00;68091.63;6247723;23;20056;-84
2020/12/31 04:22:56;;;;;;;30.35;21.48;;;;;;;-143.98;100.00;68091.63;6247196;23;20340;-84
2020/12/31 04:25:32;;;;;;;32.53;20.92;;;;;;;-143.98;100.00;68091.63;6246733;23;20035;-84
2020/12/31 04:27:58;;;;;;;32.85;21.30;;;;;;;-143.98;100.00;68091.63;6246976;23;20053;-84
2020/12/31 04:30:24;;;;;;;29.85;20.05;;;;;;;-143.98;100.00;68091.63;6220779;23;20036;-85
2020/12/31 04:32:50;;;;;;;30.13;20.20;;;;;;;-143.98;100.00;68091.63;6221674;23;20035;-85
2020/12/31 04:35:16;;;;;;;33.10;20.77;;;;;;;-143.98;100.00;68091.63;6246791;23;20090;-85
2020/12/31 04:37:49;;;;;;;34.08;20.60;;;;;;;-143.98;100.00;68091.63;6220732;23;20111;-85
2020/12/31 04:40:15;;;;;;;34.00;20.77;;;;;;;-143.98;100.00;68091.63;6245070;23;20032;-84
2020/12/31 04:42:42;;;;;;;32.40;20.23;;;;;;;-143.98;100.00;68091.63;6244885;23;20356;-85
2020/12/31 04:45:08;;;;;;;29.60;19.45;;;;;;;-143.98;100.00;68091.63;6245760;23;20036;-85
2020/12/31 04:47:48;;;;;;;32.40;18.98;;;;;;;-143.98;100.00;68091.63;6244931;23;20024;-85
2020/12/31 04:50:18;;;;;;;32.55;21.02;;;;;;;-143.98;100.00;68091.63;6245068;23;20028;-85
2020/12/31 04:52:50;;;;;;;35.38;21.50;;;;;;;-143.98;100.00;68091.63;6243805;23;20328;-83
2020/12/31 04:55:27;;;;;;;30.95;20.95;;;;;;;-143.98;100.00;68091.63;6220725;23;20036;-84
2020/12/31 04:57:58;;;;;;;32.33;20.60;;;;;;;-143.98;100.00;68091.63;6228351;22;20435;-84
2020/12/31 05:00:24;;;;;;;31.35;20.98;;;;;;;-143.98;100.00;68091.63;6251417;22;20039;-85
2020/12/31 05:02:57;;;;;;;33.75;19.92;;;;;;;-143.98;100.00;68091.63;6225113;22;20081;-84
2020/12/31 05:05:26;;;;;;;31.33;19.02;;;;;;;-143.98;100.00;68091.63;6278231;22;20031;-85
2020/12/31 05:07:52;;;;;;;29.27;19.33;;;;;;;-143.98;100.00;68091.63;6252127;22;20027;-84
2020/12/31 05:10:24;;;;;;;30.98;20.70;;;;;;;-143.98;100.00;68091.63;6229823;22;20103;-84
2020/12/31 05:13:04;;;;;;;31.23;19.85;;;;;;;-143.98;100.00;68091.63;6227175;22;20097;-84
2020/12/31 05:15:41;;;;;;;31.67;19.90;;;;;;;-143.98;100.00;68091.63;6253225;22;20035;-84
2020/12/31 05:18:24;;;;;;;27.35;18.52;;;;;;;-143.98;100.00;68091.63;6253306;22;20028;-84
2020/12/31 05:21:02;;;;;;;33.20;21.67;;;;;;;-143.98;100.00;68091.63;6228478;22;20034;-84
2020/12/31 05:23:29;;;;;;;33.13;20.58;;;;;;;-143.98;100.00;68091.63;6227993;22;20534;-84
2020/12/31 05:25:56;;;;;;;31.75;20.75;;;;;;;-143.98;100.00;68091.63;6229932;22;20038;-84
2020/12/31 05:28:34;;;;;;;33.70;21.52;;;;;;;-143.98;100.00;68091.63;6254494;22;20107;-84
2020/12/31 05:31:11;;;;;;;29.75;20.75;;;;;;;-143.98;100.00;68091.63;6227801;22;20023;-84
2020/12/31 05:33:42;;;;;;;28.70;19.58;;;;;;;-143.98;100.00;68091.63;6229409;22;20107;-84
2020/12/31 05:36:21;;;;;;;34.17;22.40;;;;;;;-143.98;100.00;68091.63;6228874;22;20221;-85
2020/12/31 05:39:00;;;;;;;37.97;22.50;;;;;;;-143.98;100.00;68091.63;6230331;22;20563;-84
2020/12/31 05:41:32;;;;;;;33.00;22.13;;;;;;;-143.98;100.00;68091.63;6281217;22;20099;-84
2020/12/31 05:44:14;;;;;;;38.60;22.05;;;;;;;-143.98;100.00;68091.63;6225887;22;20031;-83
2020/12/31 05:46:40;;;;;;;37.03;23.80;;;;;;;-143.98;100.00;68091.63;6226524;22;20038;-84
2020/12/31 05:49:10;;;;;;;33.78;22.67;;;;;;;-143.98;100.00;68091.63;6226422;22;20077;-84
2020/12/31 05:51:37;;;;;;;32.58;23.10;;;;;;;-143.98;100.00;68091.63;6249921;22;20030;-85
2020/12/31 05:54:08;;;;;;;34.70;22.85;;;;;;;-143.98;100.00;68091.63;6278526;22;20370;-85
2020/12/31 05:56:36;;;;;;;33.47;22.67;;;;;;;-143.98;100.00;68091.63;6251267;22;20142;-84
2020/12/31 05:59:24;;;;;;;35.45;23.33;;;;;;;-143.98;100.00;68091.63;6251803;22;20031;-85
2020/12/31 06:01:58;;;;;;;32.28;21.77;;;;;;;-143.98;100.00;68091.63;6227654;22;20381;-85
2020/12/31 06:04:30;;;;;;;34.25;23.38;;;;;;;-143.98;100.00;68091.63;6227437;22;20035;-85
2020/12/31 06:07:04;;;;;;;34.70;23.42;;;;;;;-143.98;100.00;68091.63;6252644;22;20034;-85
2020/12/31 06:09:36;;;;;;;39.83;24.25;;;;;;;-143.98;100.00;68091.63;6253803;22;20038;-84
2020/12/31 06:12:08;;;;;;;34.08;23.52;;;;;;;-143.98;100.00;68091.63;6256733;22;20028;-85
2020/12/31 06:14:35;;;;;;;32.45;23.63;;;;;;;-143.98;100.00;68091.63;6270379;22;20032;-84
2020/12/31 06:17:06;;;;;;;34.35;21.00;;;;;;;-143.98;100.00;68091.63;6244242;22;20032;-85
2020/12/31 06:19:38;;;;;;;35.08;22.95;;;;;;;-143.98;100.00;68091.63;6251581;22;20248;-85
2020/12/31 06:22:13;;;;;;;31.95;23.48;;;;;;;-143.98;100.00;68091.63;6227168;22;20071;-86
2020/12/31 06:24:42;;;;;;;32.45;21.55;;;;;;;-143.98;100.00;68091.63;6225953;22;20037;-85
2020/12/31 06:27:10;;;;;;;31.50;22.42;;;;;;;-143.98;100.00;68091.63;6230002;22;20027;-85
2020/12/31 06:29:48;;;;;;;32.70;21.83;;;;;;;-143.98;100.00;68091.63;6227141;22;20028;-85
2020/12/31 06:32:36;;;;;;;28.58;22.23;;;;;;;-143.98;100.00;68091.63;6250862;22;20078;-85
2020/12/31 06:35:07;;;;;;;32.30;21.27;;;;;;;-143.98;100.00;68091.63;6263354;22;20019;-85
2020/12/31 06:37:33;;;;;;;32.05;21.83;;;;;;;-143.98;100.00;68091.63;6242005;22;20054;-85
2020/12/31 06:40:21;;;;;;;32.15;21.90;;;;;;;-143.98;100.00;68091.63;6262579;22;20024;-85
2020/12/31 06:43:04;;;;;;;29.05;21.10;;;;;;;-143.98;100.00;68091.63;6289445;22;20031;-85
2020/12/31 06:45:47;;;;;;;27.83;21.30;;;;;;;-143.98;100.00;68091.63;6236384;22;20050;-85
2020/12/31 06:48:25;;;;;;;29.52;21.98;;;;;;;-143.98;100.00;68091.63;6262947;22;20015;-85
2020/12/31 06:50:56;;;;;;;32.72;21.95;;;;;;;-143.98;100.00;68091.63;6295847;22;20027;-86
2020/12/31 06:53:46;;;;;;;31.35;21.20;;;;;;;-143.98;100.00;68091.63;6255737;22;20038;-85
2020/12/31 06:56:49;;;;;;;29.25;20.58;;;;;;;-143.98;100.00;68091.63;6227377;22;20280;-84
2020/12/31 06:59:40;;;;;;;29.58;21.08;;;;;;;-143.98;100.00;68091.63;6244871;23;20028;-85
2020/12/31 07:02:10;;;;;;;31.60;21.08;;;;;;;-143.98;100.00;68091.63;6245110;23;20386;-85
2020/12/31 07:04:38;;;;;;;33.08;21.67;;;;;;;-143.98;100.00;68091.63;6247304;22;20036;-85
2020/12/31 07:07:20;;;;;;;27.60;20.30;;;;;;;-143.98;100.00;68091.63;6245180;23;20055;-85
2020/12/31 07:09:55;;;;;;;30.33;21.27;;;;;;;-143.98;100.00;68091.63;6245155;23;20087;-86
2020/12/31 07:12:39;;;;;;;31.50;20.95;;;;;;;-143.98;100.00;68091.63;6244799;23;20102;-86
2020/12/31 07:15:09;;;;;;;28.08;20.20;;;;;;;-143.98;100.00;68091.63;6244980;23;20460;-85
2020/12/31 07:17:41;;;;;;;27.33;19.30;;;;;;;-143.98;100.00;68091.63;6219867;23;20466;-86
2020/12/31 07:20:10;;;;;;;28.70;21.15;;;;;;;-143.98;100.00;68091.63;6219292;23;20212;-86
2020/12/31 07:22:41;;;;;;;25.92;19.88;;;;;;;-143.98;100.00;68091.63;6244770;23;20522;-86
2020/12/31 07:25:18;;;;;;;25.95;19.83;;;;;;;-143.98;100.00;68091.63;6246525;23;20028;-87
2020/12/31 07:27:48;;;;;;;26.80;20.27;;;;;;;-143.98;100.00;68091.63;6224481;23;20113;-86
2020/12/31 07:30:17;;;;;;;29.63;20.77;;;;;;;-143.98;100.00;68091.63;6222827;23;20035;-85
2020/12/31 07:32:58;;;;;;;29.13;20.45;;;;;;;-143.98;100.00;68091.63;6246085;23;20024;-85
2020/12/31 07:35:38;;;;;;;25.63;19.70;;;;;;;-143.98;100.00;68091.63;6220553;23;20024;-85
2020/12/31 07:38:15;;;;;;;27.17;19.23;;;;;;;-143.98;100.00;68091.63;6220021;23;20074;-85
2020/12/31 07:40:43;;;;;;;29.17;20.38;;;;;;;-143.98;100.00;68091.63;6220559;23;20024;-86
2020/12/31 07:43:18;;;;;;;27.27;20.10;;;;;;;-143.98;100.00;68091.63;6221388;23;20027;-85
2020/12/31 07:45:54;;;;;;;26.52;18.95;;;;;;;-143.98;100.00;68091.63;6219483;23;20513;-86
2020/12/31 07:48:21;;;;;;;26.50;19.88;;;;;;;-143.98;100.00;68091.63;6245616;23;20078;-86
2020/12/31 07:51:05;;;;;;;25.10;18.42;;;;;;;-143.98;100.00;68091.63;6220441;23;20032;-85
2020/12/31 07:53:39;;;;;;;25.52;18.55;;;;;;;-143.98;100.00;68091.63;6222928;23;20028;-86
2020/12/31 07:56:06;;;;;;;24.23;18.48;;;;;;;-143.98;100.00;68091.63;6246243;23;20402;-86
2020/12/31 07:58:38;;;;;;;26.58;18.70;;;;;;;-143.98;100.00;68091.63;6263176;22;20142;-87
2020/12/31 08:01:09;;;;;;;23.85;18.73;;;;;;;-143.98;100.00;68091.63;6251841;22;20035;-86
2020/12/31 08:03:39;;;;;;;22.13;17.33;;;;;;;-143.98;100.00;68091.63;6250526;22;20027;-85
2020/12/31 08:06:09;;;;;;;22.52;18.23;;;;;;;-143.98;100.00;68091.63;6250732;22;20425;-86
2020/12/31 08:08:35;;;;;;;22.67;18.55;;;;;;;-143.98;100.00;68091.63;6226339;22;20028;-86
2020/12/31 08:11:09;;;;;;;22.35;17.33;;;;;;;-143.98;100.00;68091.63;6225411;22;20058;-87
2020/12/31 08:13:36;;;;;;;22.73;17.67;;;;;;;-143.98;100.00;68091.63;6224219;22;20099;-86
2020/12/31 08:16:03;;;;;;;20.95;17.15;;;;;;;-143.98;100.00;68091.63;6251439;22;20232;-86
2020/12/31 08:18:29;;;;;;;20.98;16.75;;;;;;;-143.98;100.00;68091.63;6225635;22;20028;-87
2020/12/31 08:20:59;;;;;;;21.35;16.02;;;;;;;-143.98;100.00;68091.63;6251667;22;20127;-86
2020/12/31 08:23:32;;;;;;;20.98;16.73;;;;;;;-143.98;100.00;68091.63;6252014;22;20019;-86
2020/12/31 08:25:59;;;;;;;22.98;18.67;;;;;;;-143.98;100.00;68091.63;6228381;22;20375;-86
2020/12/31 08:28:26;;;;;;;21.38;16.75;;;;;;;-143.98;100.00;68091.63;6253260;22;20111;-86
2020/12/31 08:30:52;;;;;;;22.15;17.42;;;;;;;-143.98;100.00;68091.63;6227974;22;20024;-86
2020/12/31 08:33:25;;;;;;;22.42;17.25;;;;;;;-143.98;100.00;68091.63;6253755;22;20332;-86
2020/12/31 08:35:52;;;;;;;22.27;17.10;;;;;;;-143.98;100.00;68091.63;6254378;22;20030;-86
2020/12/31 08:38:23;;;;;;;22.80;17.85;;;;;;;-143.98;100.00;68091.63;6230579;22;20023;-86
2020/12/31 08:40:56;;;;;;;21.23;16.65;;;;;;;-143.98;100.00;68091.63;6230155;22;20062;-86
2020/12/31 08:43:38;;;;;;;23.00;17.85;;;;;;;-143.98;100.00;68091.63;6231197;22;20034;-87
2020/12/31 08:46:09;;;;;;;20.55;16.75;;;;;;;-143.98;100.00;68091.63;6230425;22;20055;-86
2020/12/31 08:48:36;;;;;;;21.63;16.70;;;;;;;-143.98;100.00;68091.63;6230161;22;20038;-86
2020/12/31 08:51:09;;;;;;;20.55;15.55;;;;;;;-143.98;100.00;68091.63;6229936;22;20365;-87
2020/12/31 08:53:55;;;;;;;17.30;14.80;;;;;;;-143.98;100.00;68091.63;6259156;22;20070;-86
2020/12/31 08:56:47;;;;;;;21.15;15.88;;;;;;;-143.98;100.00;68091.63;6255821;22;20036;-86
2020/12/31 08:59:15;;;;;;;20.35;16.27;;;;;;;-143.98;100.00;68091.63;6226091;22;20023;-86
2020/12/31 09:01:43;;;;;;;17.65;14.38;;;;;;;-143.98;100.00;68091.63;6232360;22;20051;-86
2020/12/31 09:04:17;;;;;;;19.13;15.15;;;;;;;-143.98;100.00;68091.63;6269660;22;20015;-86
2020/12/31 09:06:44;;;;;;;20.75;15.15;;;;;;;-143.98;100.00;68091.63;6267487;22;20184;-87
2020/12/31 09:09:28;;;;;;;19.98;15.20;;;;;;;-143.98;100.00;68091.63;6254478;22;20093;-87
2020/12/31 09:12:10;;;;;;;20.30;15.25;;;;;;;-143.98;100.00;68091.63;6229416;22;20035;-87
2020/12/31 09:14:38;;;;;;;19.95;14.68;;;;;;;-143.98;100.00;68091.63;6253228;22;20139;-87
2020/12/31 09:17:25;;;;;;;18.15;14.50;;;;;;;-143.98;100.00;68091.63;6229220;22;20055;-86
2020/12/31 09:20:06;;;;;;;20.40;15.25;;;;;;;-143.98;100.00;68091.63;6253500;22;20038;-87
2020/12/31 09:22:33;;;;;;;19.17;14.43;;;;;;;-143.98;100.00;68091.63;6228553;22;20027;-87
2020/12/31 09:25:09;;;;;;;18.88;14.77;;;;;;;-143.98;100.00;68091.63;6226622;22;20110;-87
2020/12/31 09:27:36;;;;;;;21.33;14.93;;;;;;;-143.98;100.00;68091.63;6226428;22;20097;-86
2020/12/31 09:30:06;;;;;;;18.92;14.20;;;;;;;-143.98;100.00;68091.63;6251471;22;20103;-86
2020/12/31 09:32:32;;;;;;;17.50;14.70;;;;;;;-143.98;100.00;68091.63;6254323;22;20036;-85
2020/12/31 09:35:02;;;;;;;19.50;14.95;;;;;;;-143.98;100.00;68091.63;6254436;22;20385;-85
2020/12/31 09:37:51;;;;;;;18.60;13.63;;;;;;;-143.98;100.00;68091.63;6228036;22;20066;-85
2020/12/31 09:40:17;;;;;;;16.77;13.00;;;;;;;-143.98;100.00;68091.63;6226132;22;20147;-86
2020/12/31 09:42:44;;;;;;;17.40;13.52;;;;;;;-143.98;100.00;68091.63;6253836;22;20031;-84
2020/12/31 09:45:12;;;;;;;15.63;12.98;;;;;;;-143.98;100.00;68091.63;6250903;22;20294;-84
2020/12/31 09:47:39;;;;;;;19.42;13.00;;;;;;;-143.98;100.00;68091.63;6226050;22;20030;-85
2020/12/31 09:50:11;;;;;;;16.27;13.20;;;;;;;-143.98;100.00;68091.63;6230692;22;20148;-85
2020/12/31 09:52:39;;;;;;;16.25;12.95;;;;;;;-143.98;100.00;68091.63;6251432;22;20034;-85
2020/12/31 09:55:23;;;;;;;17.23;12.48;;;;;;;-143.98;100.00;68091.63;6256500;22;20310;-85
2020/12/31 09:57:49;;;;;;;15.10;12.38;;;;;;;-143.98;100.00;68091.63;6246378;23;20083;-84
2020/12/31 10:00:18;;;;;;;15.15;11.80;;;;;;;-143.98;100.00;68091.63;6244983;23;20062;-84
2020/12/31 10:02:53;;;;;;;16.73;12.40;;;;;;;-143.98;100.00;68091.63;6228371;23;20028;-84
2020/12/31 10:05:39;;;;;;;18.80;12.63;;;;;;;-143.98;100.00;68091.63;6224664;23;20028;-85
2020/12/31 10:08:06;;;;;;;15.75;12.10;;;;;;;-143.98;100.00;68091.63;6247693;22;20028;-85
2020/12/31 10:10:32;;;;;;;15.07;11.25;;;;;;;-143.98;100.00;68091.63;6244930;23;20034;-84
2020/12/31 10:13:14;;;;;;;15.05;11.40;;;;;;;-143.98;100.00;68091.63;6248654;23;20035;-84
2020/12/31 10:15:41;;;;;;;15.32;11.50;;;;;;;-143.98;100.00;68091.63;6262775;22;20027;-85
2020/12/31 10:18:07;;;;;;;15.73;10.88;;;;;;;-143.98;100.00;68091.63;6262601;22;20020;-84
2020/12/31 10:20:33;;;;;;;14.77;11.57;;;;;;;-143.98;100.00;68091.63;6226390;23;20111;-85
2020/12/31 10:23:06;;;;;;;16.75;12.05;;;;;;;-143.98;100.00;68091.63;6247519;23;20027;-84
2020/12/31 10:25:32;;;;;;;14.82;11.05;;;;;;;-143.98;100.00;68091.63;6247452;23;20024;-85
2020/12/31 10:27:58;;;;;;;15.30;11.98;;;;;;;-143.98;100.00;68091.63;6235985;23;20197;-84
2020/12/31 10:30:25;;;;;;;15.13;11.90;;;;;;;-143.98;100.00;68091.63;6258305;22;20024;-85
2020/12/31 10:32:52;;;;;;;14.93;11.82;;;;;;;-143.98;100.00;68091.63;6221720;23;20305;-82
2020/12/31 10:35:18;;;;;;;15.30;12.18;;;;;;;-143.98;100.00;68091.63;6219647;23;20106;-84
2020/12/31 10:37:50;;;;;;;16.67;12.38;;;;;;;-143.98;100.00;68091.63;6221501;23;20028;-84
2020/12/31 10:40:16;;;;;;;13.05;11.00;;;;;;;-143.98;100.00;68091.63;6245865;23;20156;-83
2020/12/31 10:42:42;;;;;;;17.27;12.32;;;;;;;-143.98;100.00;68091.63;6245459;23;20039;-84
2020/12/31 10:45:10;;;;;;;15.48;11.27;;;;;;;-143.98;100.00;68091.63;6247312;23;20095;-83
2020/12/31 10:47:36;;;;;;;15.98;11.43;;;;;;;-143.98;100.00;68091.63;6243839;23;20051;-84
2020/12/31 10:50:06;;;;;;;15.38;11.90;;;;;;;-143.98;100.00;68091.63;6244416;23;20020;-84
2020/12/31 10:52:32;;;;;;;14.82;11.65;;;;;;;-143.98;100.00;68091.63;6245607;23;20035;-85
2020/12/31 10:55:02;;;;;;;14.05;11.45;;;;;;;-143.98;100.00;68091.63;6220720;23;20016;-84
2020/12/31 10:57:28;;;;;;;14.85;11.32;;;;;;;-143.98;100.00;68091.63;6251564;22;20058;-84
2020/12/31 10:59:54;;;;;;;16.63;10.82;;;;;;;-143.98;100.00;68091.63;6224189;22;20050;-85
2020/12/31 11:02:33;;;;;;;13.95;10.75;;;;;;;-143.98;100.00;68091.63;6225006;22;20296;-85
2020/12/31 11:05:05;;;;;;;13.27;9.75;;;;;;;-143.98;100.00;68091.63;6227018;22;20045;-85
2020/12/31 11:07:32;;;;;;;13.45;10.13;;;;;;;-143.98;100.00;68091.63;6225879;22;20032;-85
2020/12/31 11:10:02;;;;;;;13.32;9.82;;;;;;;-143.98;100.00;68091.63;6276053;22;20074;-85